sensor_id;sensor_type;location;lat;lon;timestamp;P1;durP1;ratioP1;P2;durP2;ratioP2
25481;SDS011;13395;50.752;4.268;2023-04-06T00:00:45;23.70;;;12.30;;
25481;SDS011;13395;50.752;4.268;2023-04-06T00:03:12;24.80;;;12.65;;
25481;SDS011;13395;50.752;4.268;2023-04-06T00:05:38;26.70;;;13.70;;
25481;SDS011;13395;50.752;4.268;2023-04-06T00:08:04;26.50;;;12.25;;
25481;SDS011;13395;50.752;4.268;2023-04-06T00:10:30;22.40;;;12.82;;
25481;SDS011;13395;50.752;4.268;2023-04-06T00:12:55;24.88;;;12.65;;
25481;SDS011;13395;50.752;4.268;2023-04-06T00:15:22;23.35;;;12.50;;
25481;SDS011;13395;50.752;4.268;2023-04-06T00:17:47;25.67;;;13.40;;
25481;SDS011;13395;50.752;4.268;2023-04-06T00:20:13;22.77;;;12.38;;
25481;SDS011;13395;50.752;4.268;2023-04-06T00:22:40;23.50;;;13.00;;
25481;SDS011;13395;50.752;4.268;2023-04-06T00:25:06;26.45;;;12.93;;
25481;SDS011;13395;50.752;4.268;2023-04-06T00:27:32;24.48;;;12.80;;
25481;SDS011;13395;50.752;4.268;2023-04-06T00:29:57;23.85;;;12.60;;
25481;SDS011;13395;50.752;4.268;2023-04-06T00:32:23;21.83;;;12.63;;
25481;SDS011;13395;50.752;4.268;2023-04-06T00:34:48;25.27;;;12.55;;
25481;SDS011;13395;50.752;4.268;2023-04-06T00:37:14;22.77;;;11.75;;
25481;SDS011;13395;50.752;4.268;2023-04-06T00:39:40;23.23;;;11.90;;
25481;SDS011;13395;50.752;4.268;2023-04-06T00:42:12;22.55;;;11.95;;
25481;SDS011;13395;50.752;4.268;2023-04-06T00:44:39;20.27;;;11.48;;
25481;SDS011;13395;50.752;4.268;2023-04-06T00:47:05;26.50;;;13.10;;
25481;SDS011;13395;50.752;4.268;2023-04-06T00:49:32;21.27;;;12.18;;
25481;SDS011;13395;50.752;4.268;2023-04-06T00:51:58;20.45;;;12.55;;
25481;SDS011;13395;50.752;4.268;2023-04-06T00:54:24;28.75;;;12.55;;
25481;SDS011;13395;50.752;4.268;2023-04-06T00:56:50;26.38;;;12.70;;
25481;SDS011;13395;50.752;4.268;2023-04-06T00:59:15;20.48;;;12.27;;
25481;SDS011;13395;50.752;4.268;2023-04-06T01:01:41;23.25;;;11.90;;
25481;SDS011;13395;50.752;4.268;2023-04-06T01:04:07;24.73;;;12.88;;
25481;SDS011;13395;50.752;4.268;2023-04-06T01:06:32;25.35;;;12.32;;
25481;SDS011;13395;50.752;4.268;2023-04-06T01:08:58;24.00;;;12.57;;
25481;SDS011;13395;50.752;4.268;2023-04-06T01:11:24;24.92;;;12.60;;
25481;SDS011;13395;50.752;4.268;2023-04-06T01:13:49;21.55;;;12.15;;
25481;SDS011;13395;50.752;4.268;2023-04-06T01:16:15;26.67;;;13.65;;
25481;SDS011;13395;50.752;4.268;2023-04-06T01:18:41;19.77;;;13.15;;
25481;SDS011;13395;50.752;4.268;2023-04-06T01:21:07;21.20;;;13.30;;
25481;SDS011;13395;50.752;4.268;2023-04-06T01:23:34;24.58;;;13.05;;
25481;SDS011;13395;50.752;4.268;2023-04-06T01:26:00;23.85;;;12.52;;
25481;SDS011;13395;50.752;4.268;2023-04-06T01:28:25;19.67;;;12.20;;
25481;SDS011;13395;50.752;4.268;2023-04-06T01:30:51;22.48;;;12.88;;
25481;SDS011;13395;50.752;4.268;2023-04-06T01:33:17;26.75;;;12.98;;
25481;SDS011;13395;50.752;4.268;2023-04-06T01:35:42;25.38;;;13.32;;
25481;SDS011;13395;50.752;4.268;2023-04-06T01:38:08;23.02;;;12.50;;
25481;SDS011;13395;50.752;4.268;2023-04-06T01:40:33;22.60;;;12.73;;
25481;SDS011;13395;50.752;4.268;2023-04-06T01:42:59;25.95;;;13.35;;
25481;SDS011;13395;50.752;4.268;2023-04-06T01:45:25;21.67;;;12.27;;
25481;SDS011;13395;50.752;4.268;2023-04-06T01:47:51;24.17;;;12.85;;
25481;SDS011;13395;50.752;4.268;2023-04-06T01:50:16;26.58;;;12.93;;
25481;SDS011;13395;50.752;4.268;2023-04-06T01:52:42;22.17;;;12.52;;
25481;SDS011;13395;50.752;4.268;2023-04-06T01:55:07;31.10;;;13.98;;
25481;SDS011;13395;50.752;4.268;2023-04-06T01:57:33;26.00;;;13.45;;
25481;SDS011;13395;50.752;4.268;2023-04-06T01:59:59;22.73;;;13.23;;
25481;SDS011;13395;50.752;4.268;2023-04-06T02:02:25;22.13;;;12.02;;
25481;SDS011;13395;50.752;4.268;2023-04-06T02:04:51;22.25;;;12.77;;
25481;SDS011;13395;50.752;4.268;2023-04-06T02:07:16;23.60;;;12.75;;
25481;SDS011;13395;50.752;4.268;2023-04-06T02:09:42;22.38;;;13.13;;
25481;SDS011;13395;50.752;4.268;2023-04-06T02:12:07;22.92;;;13.25;;
25481;SDS011;13395;50.752;4.268;2023-04-06T02:14:33;23.38;;;12.98;;
25481;SDS011;13395;50.752;4.268;2023-04-06T02:16:59;28.88;;;13.52;;
25481;SDS011;13395;50.752;4.268;2023-04-06T02:19:24;30.30;;;14.02;;
25481;SDS011;13395;50.752;4.268;2023-04-06T02:21:51;23.33;;;13.25;;
25481;SDS011;13395;50.752;4.268;2023-04-06T02:24:16;23.63;;;13.93;;
25481;SDS011;13395;50.752;4.268;2023-04-06T02:26:42;21.05;;;12.82;;
25481;SDS011;13395;50.752;4.268;2023-04-06T02:29:07;23.13;;;13.05;;
25481;SDS011;13395;50.752;4.268;2023-04-06T02:31:33;26.33;;;13.10;;
25481;SDS011;13395;50.752;4.268;2023-04-06T02:33:58;27.10;;;13.48;;
25481;SDS011;13395;50.752;4.268;2023-04-06T02:36:24;23.10;;;13.15;;
25481;SDS011;13395;50.752;4.268;2023-04-06T02:38:51;22.38;;;11.23;;
25481;SDS011;13395;50.752;4.268;2023-04-06T02:41:16;17.90;;;12.02;;
25481;SDS011;13395;50.752;4.268;2023-04-06T02:43:42;30.15;;;12.73;;
25481;SDS011;13395;50.752;4.268;2023-04-06T02:46:07;18.50;;;10.73;;
25481;SDS011;13395;50.752;4.268;2023-04-06T02:48:33;20.30;;;12.48;;
25481;SDS011;13395;50.752;4.268;2023-04-06T02:51:01;24.13;;;12.38;;
25481;SDS011;13395;50.752;4.268;2023-04-06T02:53:26;24.25;;;12.40;;
25481;SDS011;13395;50.752;4.268;2023-04-06T02:55:52;25.33;;;12.52;;
25481;SDS011;13395;50.752;4.268;2023-04-06T02:58:18;21.42;;;11.98;;
25481;SDS011;13395;50.752;4.268;2023-04-06T03:00:44;16.77;;;10.75;;
25481;SDS011;13395;50.752;4.268;2023-04-06T03:03:09;20.38;;;12.10;;
25481;SDS011;13395;50.752;4.268;2023-04-06T03:05:35;23.80;;;13.10;;
25481;SDS011;13395;50.752;4.268;2023-04-06T03:08:01;20.38;;;12.02;;
25481;SDS011;13395;50.752;4.268;2023-04-06T03:10:26;25.52;;;12.93;;
25481;SDS011;13395;50.752;4.268;2023-04-06T03:12:52;27.27;;;12.55;;
25481;SDS011;13395;50.752;4.268;2023-04-06T03:15:17;27.25;;;12.25;;
25481;SDS011;13395;50.752;4.268;2023-04-06T03:17:43;21.25;;;12.10;;
25481;SDS011;13395;50.752;4.268;2023-04-06T03:20:09;28.02;;;12.95;;
25481;SDS011;13395;50.752;4.268;2023-04-06T03:22:34;35.20;;;12.60;;
25481;SDS011;13395;50.752;4.268;2023-04-06T03:25:00;28.92;;;13.30;;
25481;SDS011;13395;50.752;4.268;2023-04-06T03:27:26;24.80;;;13.20;;
25481;SDS011;13395;50.752;4.268;2023-04-06T03:29:51;24.52;;;12.38;;
25481;SDS011;13395;50.752;4.268;2023-04-06T03:32:17;22.70;;;12.40;;
25481;SDS011;13395;50.752;4.268;2023-04-06T03:34:42;23.40;;;13.38;;
25481;SDS011;13395;50.752;4.268;2023-04-06T03:37:08;25.02;;;13.00;;
25481;SDS011;13395;50.752;4.268;2023-04-06T03:39:34;22.08;;;12.38;;
25481;SDS011;13395;50.752;4.268;2023-04-06T03:42:00;22.88;;;14.18;;
25481;SDS011;13395;50.752;4.268;2023-04-06T03:44:25;28.58;;;13.05;;
25481;SDS011;13395;50.752;4.268;2023-04-06T03:46:51;21.55;;;13.27;;
25481;SDS011;13395;50.752;4.268;2023-04-06T03:49:17;25.65;;;13.30;;
25481;SDS011;13395;50.752;4.268;2023-04-06T03:51:42;26.42;;;14.02;;
25481;SDS011;13395;50.752;4.268;2023-04-06T03:54:08;25.63;;;13.30;;
25481;SDS011;13395;50.752;4.268;2023-04-06T03:56:33;22.83;;;13.55;;
25481;SDS011;13395;50.752;4.268;2023-04-06T03:58:59;25.30;;;14.55;;
25481;SDS011;13395;50.752;4.268;2023-04-06T04:01:25;23.83;;;13.73;;
25481;SDS011;13395;50.752;4.268;2023-04-06T04:03:50;28.02;;;13.73;;
25481;SDS011;13395;50.752;4.268;2023-04-06T04:06:17;22.92;;;13.50;;
25481;SDS011;13395;50.752;4.268;2023-04-06T04:08:42;32.88;;;15.27;;
25481;SDS011;13395;50.752;4.268;2023-04-06T04:11:08;27.55;;;13.57;;
25481;SDS011;13395;50.752;4.268;2023-04-06T04:13:34;25.25;;;13.82;;
25481;SDS011;13395;50.752;4.268;2023-04-06T04:15:59;26.80;;;14.20;;
25481;SDS011;13395;50.752;4.268;2023-04-06T04:18:25;24.63;;;14.02;;
25481;SDS011;13395;50.752;4.268;2023-04-06T04:20:51;23.05;;;14.45;;
25481;SDS011;13395;50.752;4.268;2023-04-06T04:23:16;28.98;;;14.77;;
25481;SDS011;13395;50.752;4.268;2023-04-06T04:25:43;26.33;;;14.23;;
25481;SDS011;13395;50.752;4.268;2023-04-06T04:28:08;24.60;;;14.85;;
25481;SDS011;13395;50.752;4.268;2023-04-06T04:30:34;28.83;;;14.88;;
25481;SDS011;13395;50.752;4.268;2023-04-06T04:33:00;25.35;;;14.30;;
25481;SDS011;13395;50.752;4.268;2023-04-06T04:35:26;26.80;;;14.38;;
25481;SDS011;13395;50.752;4.268;2023-04-06T04:37:52;28.30;;;14.05;;
25481;SDS011;13395;50.752;4.268;2023-04-06T04:40:17;27.02;;;14.02;;
25481;SDS011;13395;50.752;4.268;2023-04-06T04:42:43;31.67;;;14.30;;
25481;SDS011;13395;50.752;4.268;2023-04-06T04:45:09;32.35;;;15.07;;
25481;SDS011;13395;50.752;4.268;2023-04-06T04:47:35;24.60;;;14.57;;
25481;SDS011;13395;50.752;4.268;2023-04-06T04:50:00;25.60;;;13.32;;
25481;SDS011;13395;50.752;4.268;2023-04-06T04:52:26;27.10;;;15.32;;
25481;SDS011;13395;50.752;4.268;2023-04-06T04:54:51;29.17;;;14.95;;
25481;SDS011;13395;50.752;4.268;2023-04-06T04:57:17;27.02;;;13.85;;
25481;SDS011;13395;50.752;4.268;2023-04-06T04:59:43;27.13;;;15.82;;
25481;SDS011;13395;50.752;4.268;2023-04-06T05:02:08;28.50;;;16.23;;
25481;SDS011;13395;50.752;4.268;2023-04-06T05:04:35;25.05;;;15.07;;
25481;SDS011;13395;50.752;4.268;2023-04-06T05:07:04;30.35;;;15.93;;
25481;SDS011;13395;50.752;4.268;2023-04-06T05:09:31;30.85;;;14.68;;
25481;SDS011;13395;50.752;4.268;2023-04-06T05:11:57;25.67;;;14.60;;
25481;SDS011;13395;50.752;4.268;2023-04-06T05:14:23;31.95;;;16.08;;
25481;SDS011;13395;50.752;4.268;2023-04-06T05:16:49;33.17;;;15.65;;
25481;SDS011;13395;50.752;4.268;2023-04-06T05:19:15;24.98;;;13.88;;
25481;SDS011;13395;50.752;4.268;2023-04-06T05:21:41;28.25;;;15.13;;
25481;SDS011;13395;50.752;4.268;2023-04-06T05:24:06;27.73;;;14.98;;
25481;SDS011;13395;50.752;4.268;2023-04-06T05:26:32;27.42;;;14.65;;
25481;SDS011;13395;50.752;4.268;2023-04-06T05:28:58;25.13;;;14.20;;
25481;SDS011;13395;50.752;4.268;2023-04-06T05:31:23;29.70;;;15.85;;
25481;SDS011;13395;50.752;4.268;2023-04-06T05:33:49;25.55;;;15.77;;
25481;SDS011;13395;50.752;4.268;2023-04-06T05:36:15;38.85;;;15.77;;
25481;SDS011;13395;50.752;4.268;2023-04-06T05:38:41;24.85;;;14.27;;
25481;SDS011;13395;50.752;4.268;2023-04-06T05:41:06;29.98;;;15.38;;
25481;SDS011;13395;50.752;4.268;2023-04-06T05:43:32;29.02;;;15.18;;
25481;SDS011;13395;50.752;4.268;2023-04-06T05:45:57;33.15;;;16.20;;
25481;SDS011;13395;50.752;4.268;2023-04-06T05:48:23;31.73;;;15.15;;
25481;SDS011;13395;50.752;4.268;2023-04-06T05:50:49;26.00;;;16.15;;
25481;SDS011;13395;50.752;4.268;2023-04-06T05:53:15;26.60;;;14.82;;
25481;SDS011;13395;50.752;4.268;2023-04-06T05:55:41;28.92;;;16.05;;
25481;SDS011;13395;50.752;4.268;2023-04-06T05:58:07;35.03;;;17.23;;
25481;SDS011;13395;50.752;4.268;2023-04-06T06:00:32;32.20;;;16.92;;
25481;SDS011;13395;50.752;4.268;2023-04-06T06:02:58;39.30;;;17.00;;
25481;SDS011;13395;50.752;4.268;2023-04-06T06:05:24;38.83;;;17.63;;
25481;SDS011;13395;50.752;4.268;2023-04-06T06:07:49;33.83;;;17.98;;
25481;SDS011;13395;50.752;4.268;2023-04-06T06:10:15;32.85;;;15.80;;
25481;SDS011;13395;50.752;4.268;2023-04-06T06:12:41;33.10;;;17.45;;
25481;SDS011;13395;50.752;4.268;2023-04-06T06:15:06;30.80;;;15.80;;
25481;SDS011;13395;50.752;4.268;2023-04-06T06:17:32;29.67;;;16.70;;
25481;SDS011;13395;50.752;4.268;2023-04-06T06:19:58;34.10;;;17.48;;
25481;SDS011;13395;50.752;4.268;2023-04-06T06:22:24;31.42;;;16.50;;
25481;SDS011;13395;50.752;4.268;2023-04-06T06:24:49;33.13;;;17.13;;
25481;SDS011;13395;50.752;4.268;2023-04-06T06:27:15;33.22;;;17.63;;
25481;SDS011;13395;50.752;4.268;2023-04-06T06:29:41;33.55;;;17.63;;
25481;SDS011;13395;50.752;4.268;2023-04-06T06:32:06;29.05;;;16.73;;
25481;SDS011;13395;50.752;4.268;2023-04-06T06:34:34;29.90;;;17.23;;
25481;SDS011;13395;50.752;4.268;2023-04-06T06:37:00;32.17;;;17.98;;
25481;SDS011;13395;50.752;4.268;2023-04-06T06:39:27;37.45;;;17.75;;
25481;SDS011;13395;50.752;4.268;2023-04-06T06:41:52;35.28;;;18.48;;
25481;SDS011;13395;50.752;4.268;2023-04-06T06:44:19;35.10;;;18.27;;
25481;SDS011;13395;50.752;4.268;2023-04-06T06:46:46;32.65;;;18.30;;
25481;SDS011;13395;50.752;4.268;2023-04-06T06:49:12;33.30;;;17.70;;
25481;SDS011;13395;50.752;4.268;2023-04-06T06:51:39;32.00;;;16.83;;
25481;SDS011;13395;50.752;4.268;2023-04-06T06:54:05;36.10;;;17.52;;
25481;SDS011;13395;50.752;4.268;2023-04-06T06:56:31;26.65;;;16.40;;
25481;SDS011;13395;50.752;4.268;2023-04-06T06:58:56;27.30;;;15.90;;
25481;SDS011;13395;50.752;4.268;2023-04-06T07:01:22;29.75;;;16.10;;
25481;SDS011;13395;50.752;4.268;2023-04-06T07:03:48;35.90;;;15.75;;
25481;SDS011;13395;50.752;4.268;2023-04-06T07:06:13;23.88;;;14.55;;
25481;SDS011;13395;50.752;4.268;2023-04-06T07:08:39;31.90;;;15.30;;
25481;SDS011;13395;50.752;4.268;2023-04-06T07:11:05;34.50;;;15.27;;
25481;SDS011;13395;50.752;4.268;2023-04-06T07:13:30;26.38;;;13.98;;
25481;SDS011;13395;50.752;4.268;2023-04-06T07:15:56;29.13;;;14.82;;
25481;SDS011;13395;50.752;4.268;2023-04-06T07:18:22;27.23;;;14.32;;
25481;SDS011;13395;50.752;4.268;2023-04-06T07:20:48;22.33;;;13.48;;
25481;SDS011;13395;50.752;4.268;2023-04-06T07:23:14;23.88;;;12.60;;
25481;SDS011;13395;50.752;4.268;2023-04-06T07:25:40;20.20;;;12.38;;
25481;SDS011;13395;50.752;4.268;2023-04-06T07:28:06;23.63;;;13.27;;
25481;SDS011;13395;50.752;4.268;2023-04-06T07:30:31;22.38;;;12.45;;
25481;SDS011;13395;50.752;4.268;2023-04-06T07:32:57;28.63;;;13.20;;
25481;SDS011;13395;50.752;4.268;2023-04-06T07:35:24;19.77;;;12.50;;
25481;SDS011;13395;50.752;4.268;2023-04-06T07:37:51;21.55;;;12.20;;
25481;SDS011;13395;50.752;4.268;2023-04-06T07:40:17;22.38;;;12.07;;
25481;SDS011;13395;50.752;4.268;2023-04-06T07:42:43;28.95;;;14.63;;
25481;SDS011;13395;50.752;4.268;2023-04-06T07:45:08;25.23;;;14.93;;
25481;SDS011;13395;50.752;4.268;2023-04-06T07:47:34;26.88;;;13.95;;
25481;SDS011;13395;50.752;4.268;2023-04-06T07:50:00;25.50;;;13.90;;
25481;SDS011;13395;50.752;4.268;2023-04-06T07:52:26;19.92;;;11.75;;
25481;SDS011;13395;50.752;4.268;2023-04-06T07:54:52;26.50;;;13.20;;
25481;SDS011;13395;50.752;4.268;2023-04-06T07:57:18;24.98;;;12.73;;
25481;SDS011;13395;50.752;4.268;2023-04-06T07:59:43;24.40;;;13.63;;
25481;SDS011;13395;50.752;4.268;2023-04-06T08:02:09;28.05;;;14.60;;
25481;SDS011;13395;50.752;4.268;2023-04-06T08:04:35;23.17;;;13.10;;
25481;SDS011;13395;50.752;4.268;2023-04-06T08:07:01;25.58;;;12.13;;
25481;SDS011;13395;50.752;4.268;2023-04-06T08:09:27;23.30;;;12.90;;
25481;SDS011;13395;50.752;4.268;2023-04-06T08:11:52;22.30;;;11.52;;
25481;SDS011;13395;50.752;4.268;2023-04-06T08:14:18;19.92;;;11.45;;
25481;SDS011;13395;50.752;4.268;2023-04-06T08:16:43;15.88;;;10.13;;
25481;SDS011;13395;50.752;4.268;2023-04-06T08:19:09;16.77;;;10.05;;
25481;SDS011;13395;50.752;4.268;2023-04-06T08:21:36;22.90;;;11.40;;
25481;SDS011;13395;50.752;4.268;2023-04-06T08:24:02;19.52;;;10.75;;
25481;SDS011;13395;50.752;4.268;2023-04-06T08:26:28;21.20;;;11.48;;
25481;SDS011;13395;50.752;4.268;2023-04-06T08:28:53;20.80;;;11.00;;
25481;SDS011;13395;50.752;4.268;2023-04-06T08:31:19;22.77;;;12.98;;
25481;SDS011;13395;50.752;4.268;2023-04-06T08:33:45;24.52;;;11.48;;
25481;SDS011;13395;50.752;4.268;2023-04-06T08:36:14;20.65;;;12.48;;
25481;SDS011;13395;50.752;4.268;2023-04-06T08:38:40;21.60;;;11.68;;
25481;SDS011;13395;50.752;4.268;2023-04-06T08:41:08;30.23;;;12.82;;
25481;SDS011;13395;50.752;4.268;2023-04-06T08:43:46;18.45;;;9.95;;
25481;SDS011;13395;50.752;4.268;2023-04-06T08:46:13;19.95;;;10.60;;
25481;SDS011;13395;50.752;4.268;2023-04-06T08:48:40;22.58;;;11.68;;
25481;SDS011;13395;50.752;4.268;2023-04-06T08:51:07;20.45;;;11.95;;
25481;SDS011;13395;50.752;4.268;2023-04-06T08:53:36;21.58;;;11.23;;
25481;SDS011;13395;50.752;4.268;2023-04-06T08:56:02;21.38;;;11.45;;
25481;SDS011;13395;50.752;4.268;2023-04-06T08:58:33;21.00;;;12.30;;
25481;SDS011;13395;50.752;4.268;2023-04-06T09:01:08;25.20;;;12.77;;
25481;SDS011;13395;50.752;4.268;2023-04-06T09:03:37;23.20;;;12.32;;
25481;SDS011;13395;50.752;4.268;2023-04-06T09:06:06;19.60;;;11.27;;
25481;SDS011;13395;50.752;4.268;2023-04-06T09:08:33;22.95;;;11.38;;
25481;SDS011;13395;50.752;4.268;2023-04-06T09:11:00;17.95;;;12.07;;
25481;SDS011;13395;50.752;4.268;2023-04-06T09:13:27;21.00;;;11.38;;
25481;SDS011;13395;50.752;4.268;2023-04-06T09:15:59;23.15;;;11.25;;
25481;SDS011;13395;50.752;4.268;2023-04-06T09:18:31;22.75;;;11.38;;
25481;SDS011;13395;50.752;4.268;2023-04-06T09:21:02;16.92;;;10.32;;
25481;SDS011;13395;50.752;4.268;2023-04-06T09:23:29;19.70;;;11.32;;
25481;SDS011;13395;50.752;4.268;2023-04-06T09:26:11;19.52;;;11.50;;
25481;SDS011;13395;50.752;4.268;2023-04-06T09:31:22;21.42;;;10.10;;
25481;SDS011;13395;50.752;4.268;2023-04-06T09:33:58;17.20;;;10.30;;
25481;SDS011;13395;50.752;4.268;2023-04-06T09:36:34;17.75;;;9.23;;
25481;SDS011;13395;50.752;4.268;2023-04-06T09:39:05;16.20;;;9.32;;
25481;SDS011;13395;50.752;4.268;2023-04-06T09:41:31;16.05;;;9.90;;
25481;SDS011;13395;50.752;4.268;2023-04-06T09:44:01;17.95;;;10.50;;
25481;SDS011;13395;50.752;4.268;2023-04-06T09:46:33;17.67;;;9.13;;
25481;SDS011;13395;50.752;4.268;2023-04-06T09:49:08;13.43;;;8.57;;
25481;SDS011;13395;50.752;4.268;2023-04-06T09:54:21;15.57;;;9.73;;
25481;SDS011;13395;50.752;4.268;2023-04-06T09:56:51;14.40;;;9.00;;
25481;SDS011;13395;50.752;4.268;2023-04-06T10:07:50;14.10;;;8.88;;
25481;SDS011;13395;50.752;4.268;2023-04-06T10:10:18;14.10;;;8.70;;
25481;SDS011;13395;50.752;4.268;2023-04-06T10:12:45;15.18;;;9.68;;
25481;SDS011;13395;50.752;4.268;2023-04-06T10:15:12;14.80;;;8.25;;
25481;SDS011;13395;50.752;4.268;2023-04-06T10:17:38;20.80;;;11.25;;
25481;SDS011;13395;50.752;4.268;2023-04-06T10:20:06;14.98;;;9.82;;
25481;SDS011;13395;50.752;4.268;2023-04-06T10:22:38;21.40;;;11.80;;
25481;SDS011;13395;50.752;4.268;2023-04-06T10:25:25;20.17;;;11.60;;
25481;SDS011;13395;50.752;4.268;2023-04-06T10:27:58;15.77;;;9.55;;
25481;SDS011;13395;50.752;4.268;2023-04-06T10:30:24;16.65;;;11.25;;
25481;SDS011;13395;50.752;4.268;2023-04-06T10:32:51;17.00;;;10.80;;
25481;SDS011;13395;50.752;4.268;2023-04-06T10:35:16;23.67;;;12.25;;
25481;SDS011;13395;50.752;4.268;2023-04-06T10:37:52;25.52;;;14.07;;
25481;SDS011;13395;50.752;4.268;2023-04-06T10:40:25;19.67;;;12.02;;
25481;SDS011;13395;50.752;4.268;2023-04-06T10:42:52;20.50;;;11.20;;
25481;SDS011;13395;50.752;4.268;2023-04-06T10:45:23;16.35;;;11.10;;
25481;SDS011;13395;50.752;4.268;2023-04-06T10:47:51;18.92;;;11.57;;
25481;SDS011;13395;50.752;4.268;2023-04-06T10:50:18;16.30;;;10.63;;
25481;SDS011;13395;50.752;4.268;2023-04-06T10:52:45;17.77;;;11.40;;
25481;SDS011;13395;50.752;4.268;2023-04-06T10:55:13;35.30;;;16.85;;
25481;SDS011;13395;50.752;4.268;2023-04-06T10:57:40;25.85;;;14.75;;
25481;SDS011;13395;50.752;4.268;2023-04-06T11:00:06;18.90;;;10.98;;
25481;SDS011;13395;50.752;4.268;2023-04-06T11:02:36;19.55;;;11.73;;
25481;SDS011;13395;50.752;4.268;2023-04-06T11:05:04;19.38;;;10.98;;
25481;SDS011;13395;50.752;4.268;2023-04-06T11:07:31;17.23;;;11.75;;
25481;SDS011;13395;50.752;4.268;2023-04-06T11:09:56;20.48;;;10.63;;
25481;SDS011;13395;50.752;4.268;2023-04-06T11:12:23;17.48;;;11.55;;
25481;SDS011;13395;50.752;4.268;2023-04-06T11:14:54;17.98;;;10.80;;
25481;SDS011;13395;50.752;4.268;2023-04-06T11:17:34;14.52;;;9.77;;
25481;SDS011;13395;50.752;4.268;2023-04-06T11:20:01;18.13;;;11.00;;
25481;SDS011;13395;50.752;4.268;2023-04-06T11:22:27;14.85;;;9.55;;
25481;SDS011;13395;50.752;4.268;2023-04-06T11:25:04;17.88;;;11.05;;
25481;SDS011;13395;50.752;4.268;2023-04-06T11:27:33;16.55;;;10.93;;
25481;SDS011;13395;50.752;4.268;2023-04-06T11:30:00;19.50;;;10.23;;
25481;SDS011;13395;50.752;4.268;2023-04-06T11:32:26;17.13;;;11.23;;
25481;SDS011;13395;50.752;4.268;2023-04-06T11:34:52;17.52;;;10.93;;
25481;SDS011;13395;50.752;4.268;2023-04-06T11:37:18;28.90;;;11.35;;
25481;SDS011;13395;50.752;4.268;2023-04-06T11:42:22;16.25;;;11.50;;
25481;SDS011;13395;50.752;4.268;2023-04-06T11:44:50;18.50;;;11.18;;
25481;SDS011;13395;50.752;4.268;2023-04-06T11:47:17;20.38;;;9.75;;
25481;SDS011;13395;50.752;4.268;2023-04-06T11:49:44;22.00;;;12.18;;
25481;SDS011;13395;50.752;4.268;2023-04-06T11:52:21;18.17;;;12.73;;
25481;SDS011;13395;50.752;4.268;2023-04-06T11:54:51;20.73;;;10.40;;
25481;SDS011;13395;50.752;4.268;2023-04-06T11:57:18;19.38;;;12.25;;
25481;SDS011;13395;50.752;4.268;2023-04-06T11:59:45;21.65;;;12.00;;
25481;SDS011;13395;50.752;4.268;2023-04-06T12:02:11;15.68;;;11.43;;
25481;SDS011;13395;50.752;4.268;2023-04-06T12:04:37;17.27;;;10.68;;
25481;SDS011;13395;50.752;4.268;2023-04-06T12:07:03;17.45;;;10.63;;
25481;SDS011;13395;50.752;4.268;2023-04-06T12:09:29;14.95;;;11.60;;
25481;SDS011;13395;50.752;4.268;2023-04-06T12:11:55;16.50;;;11.68;;
25481;SDS011;13395;50.752;4.268;2023-04-06T12:14:22;18.15;;;11.27;;
25481;SDS011;13395;50.752;4.268;2023-04-06T12:16:47;16.75;;;11.05;;
25481;SDS011;13395;50.752;4.268;2023-04-06T12:19:13;17.85;;;11.52;;
25481;SDS011;13395;50.752;4.268;2023-04-06T12:21:39;16.83;;;9.82;;
25481;SDS011;13395;50.752;4.268;2023-04-06T12:24:05;14.65;;;10.40;;
25481;SDS011;13395;50.752;4.268;2023-04-06T12:26:31;20.80;;;11.82;;
25481;SDS011;13395;50.752;4.268;2023-04-06T12:28:58;17.20;;;11.02;;
25481;SDS011;13395;50.752;4.268;2023-04-06T12:31:36;18.52;;;11.80;;
25481;SDS011;13395;50.752;4.268;2023-04-06T12:34:03;17.90;;;12.15;;
25481;SDS011;13395;50.752;4.268;2023-04-06T12:36:29;15.23;;;10.98;;
25481;SDS011;13395;50.752;4.268;2023-04-06T12:38:56;20.63;;;13.30;;
25481;SDS011;13395;50.752;4.268;2023-04-06T12:41:21;17.42;;;11.95;;
25481;SDS011;13395;50.752;4.268;2023-04-06T12:43:48;18.40;;;12.20;;
25481;SDS011;13395;50.752;4.268;2023-04-06T12:46:15;19.67;;;12.40;;
25481;SDS011;13395;50.752;4.268;2023-04-06T12:48:41;14.15;;;8.20;;
25481;SDS011;13395;50.752;4.268;2023-04-06T12:51:06;23.65;;;13.40;;
25481;SDS011;13395;50.752;4.268;2023-04-06T12:53:33;21.23;;;13.18;;
25481;SDS011;13395;50.752;4.268;2023-04-06T12:55:59;21.30;;;13.60;;
25481;SDS011;13395;50.752;4.268;2023-04-06T12:58:25;21.73;;;14.30;;
25481;SDS011;13395;50.752;4.268;2023-04-06T13:00:58;22.20;;;14.20;;
25481;SDS011;13395;50.752;4.268;2023-04-06T13:03:27;16.42;;;11.23;;
25481;SDS011;13395;50.752;4.268;2023-04-06T13:05:53;18.42;;;12.68;;
25481;SDS011;13395;50.752;4.268;2023-04-06T13:08:19;19.90;;;14.15;;
25481;SDS011;13395;50.752;4.268;2023-04-06T13:10:49;19.88;;;13.15;;
25481;SDS011;13395;50.752;4.268;2023-04-06T13:13:15;22.85;;;13.82;;
25481;SDS011;13395;50.752;4.268;2023-04-06T13:15:41;20.08;;;13.63;;
25481;SDS011;13395;50.752;4.268;2023-04-06T13:18:08;19.85;;;13.48;;
25481;SDS011;13395;50.752;4.268;2023-04-06T13:20:34;22.92;;;14.38;;
25481;SDS011;13395;50.752;4.268;2023-04-06T13:23:00;26.92;;;15.35;;
25481;SDS011;13395;50.752;4.268;2023-04-06T13:25:26;19.35;;;12.40;;
25481;SDS011;13395;50.752;4.268;2023-04-06T13:27:53;18.13;;;13.38;;
25481;SDS011;13395;50.752;4.268;2023-04-06T13:30:19;19.65;;;14.00;;
25481;SDS011;13395;50.752;4.268;2023-04-06T13:32:45;16.45;;;12.02;;
25481;SDS011;13395;50.752;4.268;2023-04-06T13:35:11;17.40;;;13.02;;
25481;SDS011;13395;50.752;4.268;2023-04-06T13:37:37;17.42;;;12.13;;
25481;SDS011;13395;50.752;4.268;2023-04-06T13:40:03;19.65;;;11.98;;
25481;SDS011;13395;50.752;4.268;2023-04-06T13:42:29;19.70;;;12.07;;
25481;SDS011;13395;50.752;4.268;2023-04-06T13:44:55;17.88;;;11.20;;
25481;SDS011;13395;50.752;4.268;2023-04-06T13:47:21;18.17;;;12.63;;
25481;SDS011;13395;50.752;4.268;2023-04-06T13:49:47;15.95;;;11.57;;
25481;SDS011;13395;50.752;4.268;2023-04-06T13:52:13;17.80;;;11.65;;
25481;SDS011;13395;50.752;4.268;2023-04-06T13:54:38;28.58;;;16.30;;
25481;SDS011;13395;50.752;4.268;2023-04-06T13:57:04;18.58;;;14.65;;
25481;SDS011;13395;50.752;4.268;2023-04-06T13:59:33;18.90;;;13.35;;
25481;SDS011;13395;50.752;4.268;2023-04-06T14:02:00;25.60;;;15.15;;
25481;SDS011;13395;50.752;4.268;2023-04-06T14:04:27;22.77;;;14.88;;
25481;SDS011;13395;50.752;4.268;2023-04-06T14:06:52;19.13;;;13.40;;
25481;SDS011;13395;50.752;4.268;2023-04-06T14:09:18;22.85;;;14.68;;
25481;SDS011;13395;50.752;4.268;2023-04-06T14:11:44;20.63;;;15.05;;
25481;SDS011;13395;50.752;4.268;2023-04-06T14:14:09;19.80;;;13.88;;
25481;SDS011;13395;50.752;4.268;2023-04-06T14:16:35;16.52;;;9.88;;
25481;SDS011;13395;50.752;4.268;2023-04-06T14:19:01;24.58;;;14.60;;
25481;SDS011;13395;50.752;4.268;2023-04-06T14:21:27;19.48;;;13.77;;
25481;SDS011;13395;50.752;4.268;2023-04-06T14:23:53;28.05;;;15.48;;
25481;SDS011;13395;50.752;4.268;2023-04-06T14:26:20;22.33;;;14.90;;
25481;SDS011;13395;50.752;4.268;2023-04-06T14:28:45;23.73;;;14.80;;
25481;SDS011;13395;50.752;4.268;2023-04-06T14:31:14;21.50;;;14.82;;
25481;SDS011;13395;50.752;4.268;2023-04-06T14:33:40;19.42;;;14.18;;
25481;SDS011;13395;50.752;4.268;2023-04-06T14:36:07;19.77;;;13.85;;